Danville, IL

3:57 PM CDT on October 31, 2014 (GMT -0500)
Vermilion County Courthouse | Change Station
CLOSE
Current Station
Personal Weather Station
Location: Danville, IL
Elevation: 640 ft
Nearby Weather Stations
Active Advisory: Freeze Warning

Elev 640 ft 40.12 °N, 87.63 °W | Updated 73 days ago

Snow
Snow
36 °F
Feels Like 25 °F
N
22
Wind Variable Wind from NNW
Gusts 33 mph

Today
High -- | Low -- °F
--% Chance of Precip.
Yesterday
High -- | Low -- °F
Precip. -- in
7:18 AM 5:49 PM
First Quarter, 59% visible
Pressure 30.09 in
Visibility 10.0 miles
Clouds Overcast 4400 ft
Windchill 25 °F
Dew Point 27 °F
Humidity 69%
Rainfall 0.41 in
Snow Depth Not available.
UV 1 out of 12
Pollen .30 out of 12
Air Quality Not available.
Flu Activity Not available.
METAR KDNV 312035Z AUTO 34022G33KT 10SM OVC044 05/M03 A3009 RMK AO2 T00461035

More Conditions Fewer Conditions

Pressure 30.09 in
Visibility 10.0 miles
Clouds Overcast 4400 ft
Windchill 25 °F
Dew Point 27 °F
Humidity 69%
Rainfall 0.41 in
Snow Depth Not available.
UV 1 out of 12
Pollen .30 out of 12
Air Quality Not available.
Flu Activity Not available.
METAR KDNV 312035Z AUTO 34022G33KT 10SM OVC044 05/M03 A3009 RMK AO2 T00461035

More Conditions Fewer Conditions

10-Day Weather Forecast

Almanac

Astronomy

Oct. 31, 2014 Rise Set
Actual Time
Civil Twilight
Nautical Twilight
Astronomical Twilight
Moon
Length of Visible Light
Length of Day
Tomorrow will be .
, % of the Moon is Illuminated

Today's Extremes

State Highs State Lows

Community

WunderPhotos

Upload Photos

1,766,734 photos uploaded!

WunderBlogs® & News

Nearby

Air Quality

  Air Quality AQ Index Pollutant
Not available.

Snow Depth

Station Depth Elevation

Earthquake Activity

City Distance Mag. Time & Date
Minimum magnitude displayed is 2.5.

Coastal Water Temperatures

Place Temperature

Nearby Weather Stations